Time;durP1;ratioP1;P1;durP2;ratioP2;P2;SDS_P1;SDS_P2;PMS_P1;PMS_P2;Temp;Humidity;BMP_temperature;BMP_pressure;BME280_temperature;BME280_humidity;BME280_pressure;Samples;Min_cycle;Max_cycle;Signal;HPM_P1;HPM_P2
2021/04/22 00:02:09;;;;;;;5.40;1.70;;;9.40;45.50;;;;;;5060555;28;20035;-68
2021/04/22 00:04:35;;;;;;;6.20;1.83;;;9.30;47.10;;;;;;5061464;28;20029;-69
2021/04/22 00:07:00;;;;;;;6.75;2.55;;;9.20;46.00;;;;;;5064554;28;20025;-68
2021/04/22 00:09:26;;;;;;;6.35;2.38;;;9.20;46.60;;;;;;5068879;28;20563;-67
2021/04/22 00:11:52;;;;;;;8.10;1.73;;;9.20;45.50;;;;;;5057919;28;20028;-69
2021/04/22 00:14:17;;;;;;;5.50;1.63;;;9.20;45.10;;;;;;5062391;28;20121;-69
2021/04/22 00:16:43;;;;;;;11.00;2.85;;;9.10;45.50;;;;;;5062658;28;20030;-70
2021/04/22 00:19:09;;;;;;;8.27;1.63;;;9.00;46.30;;;;;;5056707;28;20057;-69
2021/04/22 00:21:35;;;;;;;9.93;3.35;;;9.00;45.90;;;;;;5068142;28;20469;-70
2021/04/22 00:24:01;;;;;;;6.72;2.53;;;8.90;47.60;;;;;;5058682;28;20023;-69
2021/04/22 00:26:27;;;;;;;7.65;2.25;;;8.90;48.00;;;;;;5060223;28;20116;-69
2021/04/22 00:28:53;;;;;;;9.02;1.92;;;8.90;47.10;;;;;;5065834;28;20088;-70
2021/04/22 00:31:19;;;;;;;7.93;2.15;;;8.90;47.60;;;;;;5055963;28;20534;-70
2021/04/22 00:33:44;;;;;;;6.82;1.30;;;8.70;47.60;;;;;;5066749;28;20103;-70
2021/04/22 00:36:10;;;;;;;10.43;1.95;;;8.70;47.10;;;;;;5059249;28;20025;-69
2021/04/22 00:38:35;;;;;;;12.82;2.40;;;8.70;48.80;;;;;;5060925;28;20033;-69
2021/04/22 00:41:01;;;;;;;10.48;1.95;;;8.70;49.50;;;;;;5065784;28;20044;-69
2021/04/22 00:43:27;;;;;;;8.40;2.17;;;8.70;48.70;;;;;;5055358;28;20535;-70
2021/04/22 00:45:52;;;;;;;9.40;2.08;;;8.70;48.60;;;;;;5066631;28;20107;-70
2021/04/22 00:48:21;;;;;;;7.55;2.45;;;8.60;48.60;;;;;;5060083;28;20028;-70
2021/04/22 00:50:47;;;;;;;10.13;2.40;;;8.50;50.60;;;;;;5059113;28;20418;-68
2021/04/22 00:53:13;;;;;;;9.52;1.90;;;8.50;50.40;;;;;;5067995;28;20029;-70
2021/04/22 00:55:39;;;;;;;6.28;1.63;;;8.40;49.80;;;;;;5055202;28;20103;-68
2021/04/22 00:58:06;;;;;;;11.88;2.55;;;8.30;50.50;;;;;;5064035;28;20387;-68
2021/04/22 01:00:38;;;;;;;9.38;2.42;;;8.30;50.40;;;;;;5044866;28;20025;-69
2021/04/22 01:03:05;;;;;;;8.40;1.70;;;8.20;51.30;;;;;;5056152;28;20059;-68
2021/04/22 01:05:39;;;;;;;8.63;2.05;;;8.10;50.10;;;;;;5068092;28;20078;-69
2021/04/22 01:08:05;;;;;;;6.63;2.15;;;8.10;50.20;;;;;;5056444;28;20494;-68
2021/04/22 01:10:30;;;;;;;5.82;1.27;;;8.00;51.20;;;;;;5061100;28;20099;-69
2021/04/22 01:12:56;;;;;;;12.27;1.90;;;7.90;50.90;;;;;;5051012;28;20082;-68
2021/04/22 01:15:25;;;;;;;4.40;1.48;;;7.80;51.90;;;;;;5044198;22;20041;-67
2021/04/22 01:17:53;;;;;;;8.18;1.73;;;7.80;51.80;;;;;;5027975;28;20112;-68
2021/04/22 01:20:25;;;;;;;11.23;2.85;;;7.80;51.90;;;;;;5040448;28;20094;-69
2021/04/22 01:22:51;;;;;;;8.05;2.35;;;7.50;51.30;;;;;;5020469;28;20049;-68
2021/04/22 01:25:29;;;;;;;11.48;2.50;;;7.40;51.00;;;;;;5031741;28;20065;-69
2021/04/22 01:27:55;;;;;;;13.55;2.78;;;7.20;50.20;;;;;;5016538;28;20448;-68
2021/04/22 01:30:27;;;;;;;8.18;1.80;;;7.00;51.50;;;;;;5004432;28;20119;-69
2021/04/22 01:32:53;;;;;;;8.38;2.03;;;6.80;50.80;;;;;;5024872;28;20017;-69
2021/04/22 01:35:22;;;;;;;9.98;2.30;;;6.80;52.10;;;;;;5014942;28;20101;-69
2021/04/22 01:37:48;;;;;;;14.90;2.55;;;6.70;54.20;;;;;;4990407;28;20029;-69
2021/04/22 01:40:16;;;;;;;13.10;2.70;;;6.60;52.90;;;;;;5023120;28;20044;-69
2021/04/22 01:42:41;;;;;;;12.18;2.60;;;6.40;53.10;;;;;;5023591;28;20112;-69
2021/04/22 01:45:10;;;;;;;8.73;2.25;;;6.30;53.60;;;;;;5005296;28;20205;-69
2021/04/22 01:47:37;;;;;;;14.55;3.08;;;6.20;54.50;;;;;;5047926;28;20017;-68
2021/04/22 01:50:06;;;;;;;10.23;2.25;;;6.10;55.10;;;;;;5035118;28;20069;-69
2021/04/22 01:52:32;;;;;;;20.45;2.97;;;6.10;56.20;;;;;;5021969;28;20044;-69
2021/04/22 01:54:57;;;;;;;11.63;2.25;;;6.00;56.10;;;;;;4983375;28;20026;-69
2021/04/22 01:57:25;;;;;;;13.98;2.28;;;6.00;56.70;;;;;;5009309;28;20049;-69
2021/04/22 01:59:51;;;;;;;7.20;2.53;;;5.90;55.70;;;;;;5016929;28;20026;-69
2021/04/22 02:02:17;;;;;;;21.67;3.25;;;5.80;56.70;;;;;;5022511;28;20397;-69
2021/04/22 02:04:45;;;;;;;7.80;2.00;;;5.70;57.70;;;;;;5023285;28;20095;-68
2021/04/22 02:07:14;;;;;;;13.40;2.70;;;5.60;57.90;;;;;;4996623;28;20025;-69
2021/04/22 02:09:39;;;;;;;16.33;3.38;;;5.60;59.00;;;;;;4998555;28;20049;-69
2021/04/22 02:12:06;;;;;;;21.13;3.22;;;5.60;59.80;;;;;;5023999;28;20068;-69
2021/04/22 02:14:32;;;;;;;11.63;2.78;;;5.60;58.60;;;;;;5004105;28;20029;-69
2021/04/22 02:16:58;;;;;;;10.32;3.03;;;5.50;59.10;;;;;;5015809;28;20049;-68
2021/04/22 02:19:24;;;;;;;14.82;2.72;;;5.50;59.40;;;;;;5027488;28;20398;-69
2021/04/22 02:21:50;;;;;;;13.27;2.33;;;5.40;59.10;;;;;;5016025;28;20029;-68
2021/04/22 02:24:16;;;;;;;19.73;3.33;;;5.30;59.70;;;;;;5004842;28;20026;-69
2021/04/22 02:26:42;;;;;;;11.13;2.55;;;5.40;59.30;;;;;;5022211;28;20017;-69
2021/04/22 02:29:08;;;;;;;13.02;3.28;;;5.30;59.30;;;;;;5014998;28;20037;-68
2021/04/22 02:31:33;;;;;;;12.00;2.90;;;5.30;59.40;;;;;;5027581;28;20026;-69
2021/04/22 02:33:59;;;;;;;21.30;2.83;;;5.30;59.70;;;;;;5017517;28;20254;-69
2021/04/22 02:36:25;;;;;;;8.48;2.17;;;5.30;58.40;;;;;;5020636;28;20022;-68
2021/04/22 02:38:50;;;;;;;16.33;3.03;;;5.10;58.70;;;;;;5024434;28;20037;-68
2021/04/22 02:41:16;;;;;;;18.88;4.03;;;5.00;59.30;;;;;;4996638;28;20085;-68
2021/04/22 02:43:41;;;;;;;15.13;2.85;;;4.90;59.60;;;;;;5026866;28;20092;-69
2021/04/22 02:46:07;;;;;;;11.77;2.90;;;4.80;59.90;;;;;;5021129;28;20056;-67
2021/04/22 02:48:32;;;;;;;10.85;2.25;;;4.70;61.20;;;;;;5023526;28;20022;-69
2021/04/22 02:51:00;;;;;;;14.60;2.78;;;4.70;61.60;;;;;;5028431;28;20067;-69
2021/04/22 02:53:25;;;;;;;16.52;3.10;;;4.60;61.30;;;;;;5017838;28;20037;-69
2021/04/22 02:55:51;;;;;;;17.27;3.58;;;4.60;61.70;;;;;;5011652;28;20022;-69
2021/04/22 02:58:17;;;;;;;9.07;2.97;;;4.60;62.20;;;;;;5022534;28;20025;-68
2021/04/22 03:00:45;;;;;;;14.55;3.15;;;4.50;62.50;;;;;;5004248;28;20494;-69
2021/04/22 03:03:12;;;;;;;17.40;2.88;;;4.50;62.30;;;;;;5012813;28;20029;-68
2021/04/22 03:05:37;;;;;;;15.07;3.10;;;4.50;61.90;;;;;;5017606;28;20022;-68
2021/04/22 03:08:04;;;;;;;20.65;3.97;;;4.50;62.00;;;;;;5011811;28;20040;-68
2021/04/22 03:10:31;;;;;;;10.57;3.53;;;4.50;62.40;;;;;;5023922;28;20110;-68
2021/04/22 03:12:57;;;;;;;18.35;3.50;;;4.50;61.80;;;;;;5027904;28;20022;-68
2021/04/22 03:15:24;;;;;;;18.02;4.25;;;4.30;62.20;;;;;;4999833;28;20042;-68
2021/04/22 03:17:50;;;;;;;26.80;9.52;;;4.20;62.20;;;;;;5010629;28;20037;-68
2021/04/22 03:20:18;;;;;;;202.40;116.45;;;4.20;63.40;;;;;;5022711;28;20025;-68
2021/04/22 03:22:44;;;;;;;12.65;3.35;;;4.10;65.00;;;;;;5021053;28;20030;-68
2021/04/22 03:25:11;;;;;;;24.95;7.85;;;4.20;63.70;;;;;;5029402;28;20399;-68
2021/04/22 03:27:40;;;;;;;20.58;5.22;;;4.10;63.60;;;;;;5011730;28;20029;-68
2021/04/22 03:30:10;;;;;;;21.83;5.00;;;4.10;64.20;;;;;;5020930;28;20044;-68
2021/04/22 03:32:35;;;;;;;18.42;3.75;;;4.10;65.00;;;;;;5022268;28;20022;-68
2021/04/22 03:35:03;;;;;;;27.85;11.25;;;4.10;64.20;;;;;;5010343;28;20495;-69
2021/04/22 03:37:28;;;;;;;13.73;3.72;;;4.00;64.40;;;;;;5016243;28;20480;-69
2021/04/22 03:39:54;;;;;;;16.65;3.30;;;4.00;64.50;;;;;;5027875;28;20022;-68
2021/04/22 03:42:19;;;;;;;18.98;3.53;;;3.90;65.00;;;;;;5022432;28;20021;-68
2021/04/22 03:44:45;;;;;;;20.80;4.35;;;4.00;65.40;;;;;;5020737;28;20022;-68
2021/04/22 03:47:11;;;;;;;10.90;2.78;;;4.00;65.70;;;;;;5028655;28;20048;-69
2021/04/22 03:49:38;;;;;;;18.23;3.47;;;4.00;65.20;;;;;;5016661;28;20021;-70
2021/04/22 03:52:05;;;;;;;17.85;3.92;;;3.90;64.90;;;;;;5029934;28;21369;-69
2021/04/22 03:54:31;;;;;;;18.20;3.13;;;3.80;65.90;;;;;;5022677;28;20457;-69
2021/04/22 03:56:57;;;;;;;17.73;3.40;;;3.80;65.90;;;;;;5024839;28;20021;-69
2021/04/22 03:59:22;;;;;;;14.32;3.33;;;3.90;66.90;;;;;;5016371;28;20036;-68
2021/04/22 04:01:48;;;;;;;12.60;3.70;;;3.80;65.90;;;;;;5028186;28;20030;-69
2021/04/22 04:04:13;;;;;;;16.08;3.55;;;3.80;65.90;;;;;;5003711;28;20121;-68
2021/04/22 04:06:39;;;;;;;16.42;2.70;;;3.80;66.10;;;;;;5020212;28;20034;-68
2021/04/22 04:09:05;;;;;;;20.73;3.80;;;3.90;66.50;;;;;;5010090;28;20033;-68
2021/04/22 04:11:33;;;;;;;18.33;4.30;;;4.00;65.80;;;;;;5016118;28;20018;-68
2021/04/22 04:13:58;;;;;;;19.33;3.45;;;4.00;65.90;;;;;;5008887;28;20454;-69
2021/04/22 04:16:24;;;;;;;17.52;3.65;;;3.90;66.10;;;;;;5021872;28;20026;-69
2021/04/22 04:18:50;;;;;;;16.40;3.97;;;4.00;65.60;;;;;;5001696;28;20480;-69
2021/04/22 04:21:16;;;;;;;9.65;3.22;;;4.00;66.00;;;;;;5011216;28;20029;-69
2021/04/22 04:23:42;;;;;;;17.15;3.60;;;4.00;65.90;;;;;;5016454;28;20163;-69
2021/04/22 04:26:08;;;;;;;12.55;3.35;;;4.00;66.20;;;;;;5006488;28;20568;-68
2021/04/22 04:28:33;;;;;;;22.48;3.83;;;4.10;66.30;;;;;;5023638;28;20029;-69
2021/04/22 04:31:02;;;;;;;17.65;3.65;;;4.10;66.10;;;;;;5000037;28;20018;-69
2021/04/22 04:33:27;;;;;;;20.20;4.78;;;4.10;66.00;;;;;;5010834;28;20030;-68
2021/04/22 04:35:53;;;;;;;16.63;3.42;;;4.20;65.70;;;;;;5017524;28;20018;-68
2021/04/22 04:38:19;;;;;;;21.23;3.65;;;4.30;65.50;;;;;;5022462;28;20025;-69
2021/04/22 04:40:45;;;;;;;13.30;2.92;;;4.40;64.90;;;;;;5024642;28;20517;-69
2021/04/22 04:43:10;;;;;;;18.00;3.85;;;4.60;64.30;;;;;;5015971;28;20029;-69
2021/04/22 04:45:36;;;;;;;11.00;2.92;;;4.80;65.10;;;;;;5028312;28;20034;-68
2021/04/22 04:48:02;;;;;;;32.13;4.47;;;5.10;63.70;;;;;;5017906;28;20031;-71
2021/04/22 04:50:27;;;;;;;24.85;4.68;;;5.90;61.20;;;;;;5022100;28;20049;-70
2021/04/22 04:52:53;;;;;;;14.48;3.20;;;6.80;57.60;;;;;;5024515;28;20087;-68
2021/04/22 04:55:21;;;;;;;16.85;3.97;;;7.40;56.10;;;;;;5013074;28;20547;-69
2021/04/22 04:57:47;;;;;;;12.98;3.13;;;8.00;53.10;;;;;;5027400;28;20018;-69
2021/04/22 05:00:15;;;;;;;15.23;3.35;;;8.50;51.30;;;;;;5022316;28;20022;-69
2021/04/22 05:02:40;;;;;;;15.27;4.18;;;9.00;49.70;;;;;;5021526;28;20018;-68
2021/04/22 05:05:07;;;;;;;13.57;5.32;;;9.40;48.30;;;;;;5014231;28;20033;-69
2021/04/22 05:07:33;;;;;;;16.27;3.42;;;9.90;47.00;;;;;;5006518;28;20026;-70
2021/04/22 05:10:01;;;;;;;13.30;3.30;;;10.50;44.70;;;;;;5007203;28;20060;-70
2021/04/22 05:12:26;;;;;;;10.18;2.90;;;10.80;45.10;;;;;;5021685;28;20047;-70
2021/04/22 05:14:52;;;;;;;13.27;3.65;;;10.80;44.20;;;;;;5017535;28;20483;-69
2021/04/22 05:17:17;;;;;;;13.93;3.42;;;11.10;44.60;;;;;;5026657;28;20021;-70
2021/04/22 05:19:43;;;;;;;18.40;3.95;;;11.40;43.70;;;;;;4998195;28;20533;-70
2021/04/22 05:22:09;;;;;;;10.27;3.00;;;10.30;45.20;;;;;;5023607;28;20127;-70
2021/04/22 05:24:35;;;;;;;12.90;3.63;;;9.40;48.00;;;;;;5004762;28;20502;-70
2021/04/22 05:27:03;;;;;;;17.00;3.80;;;8.80;49.00;;;;;;5015892;28;20026;-70
2021/04/22 05:29:29;;;;;;;14.32;3.70;;;8.80;50.10;;;;;;5027536;28;20037;-69
2021/04/22 05:31:57;;;;;;;15.80;4.07;;;8.60;50.00;;;;;;4999310;28;20100;-69
2021/04/22 05:34:23;;;;;;;14.52;4.15;;;8.60;50.60;;;;;;5004201;28;20054;-69
2021/04/22 05:36:48;;;;;;;18.65;3.63;;;8.40;51.50;;;;;;5005610;28;20025;-68
2021/04/22 05:39:18;;;;;;;18.67;3.50;;;8.30;52.90;;;;;;4997165;28;20061;-70
2021/04/22 05:41:47;;;;;;;18.13;3.50;;;8.50;51.90;;;;;;5027283;28;20029;-70
2021/04/22 05:44:13;;;;;;;16.00;4.57;;;8.70;51.50;;;;;;5019520;28;20032;-70
2021/04/22 05:46:40;;;;;;;12.88;3.95;;;8.60;51.20;;;;;;5018610;28;20136;-68
2021/04/22 05:49:06;;;;;;;12.52;3.15;;;8.50;51.50;;;;;;5026400;28;20083;-68
2021/04/22 05:51:31;;;;;;;16.17;4.25;;;8.30;52.00;;;;;;4994164;28;20476;-70
2021/04/22 05:53:57;;;;;;;15.10;4.93;;;8.50;52.20;;;;;;5017095;28;20395;-70
2021/04/22 05:56:23;;;;;;;15.05;3.92;;;8.60;51.50;;;;;;5003125;28;20026;-68
2021/04/22 05:58:48;;;;;;;16.20;4.30;;;8.70;51.40;;;;;;5024024;28;20079;-69
2021/04/22 06:01:14;;;;;;;17.05;4.00;;;8.90;50.50;;;;;;5014442;28;20053;-69
2021/04/22 06:03:40;;;;;;;14.30;3.30;;;9.20;48.70;;;;;;5027367;28;20029;-69
2021/04/22 06:06:05;;;;;;;12.57;3.72;;;9.90;48.20;;;;;;4999825;28;20118;-69
2021/04/22 06:08:31;;;;;;;18.48;4.70;;;10.40;45.80;;;;;;5027302;28;20032;-69
2021/04/22 06:10:57;;;;;;;22.75;4.93;;;10.30;46.40;;;;;;5016546;28;20208;-70
2021/04/22 06:13:22;;;;;;;12.43;3.28;;;10.20;46.50;;;;;;5028612;28;20022;-70
2021/04/22 06:15:50;;;;;;;16.15;3.55;;;10.60;44.60;;;;;;5026061;28;20029;-69
2021/04/22 06:18:16;;;;;;;11.98;3.05;;;10.90;43.40;;;;;;5001529;28;20026;-70
2021/04/22 06:20:42;;;;;;;10.75;3.53;;;10.50;43.40;;;;;;5021928;28;20048;-70
2021/04/22 06:23:08;;;;;;;18.02;4.13;;;10.60;44.80;;;;;;5030389;28;20034;-70
2021/04/22 06:25:33;;;;;;;18.02;4.00;;;10.60;44.70;;;;;;5000443;28;20393;-69
2021/04/22 06:28:00;;;;;;;13.68;4.10;;;10.30;44.40;;;;;;5030534;28;20040;-68
2021/04/22 06:30:29;;;;;;;46.88;19.33;;;10.80;44.50;;;;;;5019882;28;20026;-69
2021/04/22 06:32:55;;;;;;;39.25;13.63;;;10.90;43.40;;;;;;5002520;28;20033;-69
2021/04/22 06:35:21;;;;;;;30.83;11.43;;;11.70;41.80;;;;;;5020432;28;20051;-69
2021/04/22 06:37:47;;;;;;;28.92;13.13;;;12.50;38.80;;;;;;5030119;28;20490;-67
2021/04/22 06:40:16;;;;;;;35.22;13.60;;;12.20;39.60;;;;;;5024710;28;20034;-67
2021/04/22 06:42:43;;;;;;;29.40;9.90;;;12.60;39.50;;;;;;5041481;28;20022;-67
2021/04/22 06:45:10;;;;;;;17.55;6.75;;;12.60;38.70;;;;;;5031079;28;20032;-67
2021/04/22 06:47:36;;;;;;;34.38;14.10;;;12.30;38.50;;;;;;5026437;28;20021;-68
2021/04/22 06:50:07;;;;;;;27.42;9.27;;;12.00;40.00;;;;;;5008604;28;20426;-70
2021/04/22 06:52:34;;;;;;;22.33;9.20;;;11.60;41.00;;;;;;5024262;28;20364;-68
2021/04/22 06:55:00;;;;;;;19.55;9.13;;;11.70;41.40;;;;;;5028931;28;20162;-67
2021/04/22 06:57:26;;;;;;;29.95;14.35;;;11.90;40.60;;;;;;5017178;28;20437;-67
2021/04/22 06:59:52;;;;;;;23.40;10.07;;;11.50;40.10;;;;;;5028795;28;20028;-67
2021/04/22 07:02:18;;;;;;;13.55;5.93;;;11.50;41.70;;;;;;5023277;28;20022;-69
2021/04/22 07:04:44;;;;;;;26.08;8.93;;;11.50;40.70;;;;;;5021871;28;20030;-70
2021/04/22 07:07:10;;;;;;;16.08;7.32;;;11.40;41.60;;;;;;5026223;28;20492;-67
2021/04/22 07:09:38;;;;;;;21.08;8.52;;;11.30;42.40;;;;;;5030436;28;20092;-67
2021/04/22 07:12:04;;;;;;;23.40;8.27;;;11.00;42.90;;;;;;5020766;28;20116;-68
2021/04/22 07:15:08;;;;;;;32.03;13.23;;;10.90;42.90;;;;;;5124553;22;20390;-68
2021/04/22 07:18:05;;;;;;;19.92;7.80;;;11.00;43.40;;;;;;5053414;28;20045;-69
2021/04/22 07:20:34;;;;;;;27.17;10.57;;;10.70;44.10;;;;;;5036517;28;20029;-72
2021/04/22 07:23:28;;;;;;;;;;;;;;;;;;;;;
2021/04/22 07:25:58;;;;;;;65.28;27.70;;;10.40;43.20;;;;;;5040218;28;20023;-69
2021/04/22 07:28:27;;;;;;;73.15;24.45;;;10.20;44.00;;;;;;5035989;28;20035;-71
2021/04/22 07:34:46;;;;;;;41.13;16.38;;;10.30;44.30;;;;;;4999938;28;20017;-70
2021/04/22 07:37:25;;;;;;;40.88;16.65;;;10.40;44.30;;;;;;5046808;28;20040;-73
2021/04/22 07:40:28;;;;;;;41.25;17.40;;;10.20;43.80;;;;;;5022345;28;20048;-69
2021/04/22 07:43:00;;;;;;;13.63;4.60;;;10.00;43.60;;;;;;4973411;28;20118;-70
2021/04/22 07:45:53;;;;;;;33.67;14.23;;;10.10;42.90;;;;;;5053813;28;20029;-69
2021/04/22 07:48:26;;;;;;;57.03;24.10;;;10.10;44.30;;;;;;5037746;28;20068;-69
2021/04/22 07:50:55;;;;;;;85.07;32.97;;;10.20;43.90;;;;;;5055725;28;20143;-70
2021/04/22 07:53:30;;;;;;;44.17;16.60;;;10.90;43.40;;;;;;5055842;28;20053;-71
2021/04/22 07:56:09;;;;;;;37.10;12.68;;;11.70;41.00;;;;;;5037199;28;20163;-69
2021/04/22 07:59:04;;;;;;;41.30;17.70;;;11.90;39.80;;;;;;5055184;28;20024;-70
2021/04/22 08:01:34;;;;;;;48.10;20.05;;;12.30;39.90;;;;;;5003990;28;20499;-71
2021/04/22 08:04:06;;;;;;;22.42;8.25;;;11.80;40.50;;;;;;5054232;28;20036;-70
2021/04/22 08:07:26;;;;;;;;;;;;;;;;;;;;;
2021/04/22 08:10:29;;;;;;;18.55;5.03;;;11.00;42.20;;;;;;5039247;28;20036;-69
2021/04/22 08:13:08;;;;;;;25.15;9.52;;;10.80;42.80;;;;;;5054028;28;20031;-71
2021/04/22 08:15:56;;;;;;;42.35;18.42;;;10.40;43.00;;;;;;5080590;23;20057;-71
2021/04/22 08:18:44;;;;;;;23.58;8.55;;;10.50;43.50;;;;;;5043781;28;20029;-70
2021/04/22 08:21:27;;;;;;;44.47;16.13;;;10.30;43.70;;;;;;5047875;28;20028;-70
2021/04/22 08:26:25;;;;;;;28.63;10.52;;;;;;;;;;5111661;22;20468;-70
2021/04/22 08:29:04;;;;;;;21.20;7.93;;;;;;;;;;5079330;28;20441;-71
2021/04/22 08:31:39;;;;;;;44.63;17.80;;;10.10;45.20;;;;;;5089963;28;20059;-70
2021/04/22 08:34:08;;;;;;;16.15;6.25;;;10.20;45.20;;;;;;5060151;28;20047;-70
2021/04/22 08:36:37;;;;;;;35.33;15.23;;;10.00;44.90;;;;;;5061215;28;20380;-70
2021/04/22 08:39:20;;;;;;;25.02;8.23;;;10.00;44.80;;;;;;5049816;28;20375;-71
2021/04/22 08:42:30;;;;;;;77.68;30.30;;;10.00;44.30;;;;;;5038625;28;20476;-69
2021/04/22 08:44:59;;;;;;;51.63;20.20;;;10.10;45.80;;;;;;4988712;28;20045;-69
2021/04/22 08:47:28;;;;;;;64.40;27.20;;;10.80;43.70;;;;;;5041706;28;20064;-71
2021/04/22 08:50:08;;;;;;;63.97;27.27;;;11.40;42.90;;;;;;5056365;28;20079;-70
2021/04/22 08:52:34;;;;;;;50.65;20.33;;;11.80;41.60;;;;;;5033883;28;20486;-70
2021/04/22 08:55:06;;;;;;;23.45;6.65;;;12.20;39.20;;;;;;5066971;28;20089;-72
2021/04/22 08:57:34;;;;;;;;;;;12.20;38.90;;;;;;5039105;28;20087;-70
2021/04/22 09:00:36;;;;;;;55.22;23.88;;;12.80;40.00;;;;;;5050562;28;20346;-69
2021/04/22 09:03:08;;;;;;;36.80;9.07;;;13.20;37.90;;;;;;5029284;28;20140;-73
2021/04/22 09:06:08;;;;;;;33.08;14.95;;;13.10;36.90;;;;;;5051852;28;20036;-71
2021/04/22 09:08:55;;;;;;;43.83;19.17;;;12.90;37.90;;;;;;5067177;28;20036;-70
2021/04/22 09:11:26;;;;;;;71.50;31.30;;;12.30;38.70;;;;;;5056313;28;20025;-73
2021/04/22 09:14:10;;;;;;;75.93;32.83;;;12.10;41.20;;;;;;5049741;28;20043;-70
2021/04/22 09:17:25;;;;;;;47.67;22.05;;;11.90;42.20;;;;;;5063449;28;20421;-70
2021/04/22 09:19:54;;;;;;;64.63;28.30;;;11.90;40.50;;;;;;5043243;28;20056;-70
2021/04/22 09:22:45;;;;;;;48.45;18.40;;;12.00;41.90;;;;;;5045262;28;20123;-70
2021/04/22 09:26:03;;;;;;;40.13;16.65;;;11.90;39.10;;;;;;5124038;22;20493;-69
2021/04/22 09:28:47;;;;;;;53.92;22.10;;;11.90;39.10;;;;;;5062753;28;20131;-71
2021/04/22 09:31:36;;;;;;;66.93;29.55;;;11.60;39.40;;;;;;5057946;28;20035;-71
2021/04/22 09:34:32;;;;;;;48.08;19.08;;;11.80;41.00;;;;;;5062099;28;20136;-71
2021/04/22 09:37:09;;;;;;;96.22;47.63;;;11.40;40.30;;;;;;4939039;29;20127;-71
2021/04/22 09:39:44;;;;;;;67.60;29.85;;;11.40;41.70;;;;;;5068868;28;20040;-73
2021/04/22 09:42:26;;;;;;;11.55;5.53;;;11.70;41.00;;;;;;5060099;28;20024;-72
2021/04/22 09:45:15;;;;;;;;;;;;;;;;;;;;;
2021/04/22 09:47:58;;;;;;;39.80;17.55;;;11.90;38.50;;;;;;5039441;28;20033;-71
2021/04/22 09:50:26;;;;;;;17.98;5.10;;;12.50;38.60;;;;;;5050589;28;20023;-69
2021/04/22 09:52:55;;;;;;;58.25;20.98;;;12.60;36.00;;;;;;5057612;28;20019;-69
2021/04/22 09:55:24;;;;;;;20.70;7.93;;;12.50;37.30;;;;;;5071546;28;20031;-70
2021/04/22 09:57:50;;;;;;;34.38;10.95;;;12.30;36.50;;;;;;5059993;28;20051;-71
2021/04/22 10:00:26;;;;;;;27.90;10.02;;;12.30;37.30;;;;;;5051975;28;20398;-69
2021/04/22 10:02:57;;;;;;;17.90;5.85;;;12.30;38.10;;;;;;5063068;28;20027;-69
2021/04/22 10:05:29;;;;;;;30.08;12.18;;;12.50;36.60;;;;;;5055298;28;20043;-69
2021/04/22 10:08:05;;;;;;;17.38;5.78;;;12.70;37.50;;;;;;5061278;28;20028;-70
2021/04/22 10:10:31;;;;;;;15.15;6.18;;;12.50;36.70;;;;;;5047195;28;20032;-69
2021/04/22 10:13:12;;;;;;;37.53;15.98;;;12.50;36.80;;;;;;5070374;28;20032;-70
2021/04/22 10:15:52;;;;;;;25.02;10.32;;;12.40;36.80;;;;;;5059084;28;20023;-71
2021/04/22 10:18:17;;;;;;;28.40;10.27;;;12.20;35.90;;;;;;5066870;28;20399;-70
2021/04/22 10:20:43;;;;;;;26.13;11.15;;;12.40;36.70;;;;;;5068610;28;20025;-68
2021/04/22 10:23:10;;;;;;;27.55;11.27;;;12.60;37.00;;;;;;5060163;28;20107;-70
2021/04/22 10:25:39;;;;;;;17.80;7.72;;;13.20;36.90;;;;;;5072439;28;20800;-68
2021/04/22 10:28:09;;;;;;;34.75;14.23;;;13.50;35.00;;;;;;5062320;28;20028;-68
2021/04/22 10:30:36;;;;;;;23.17;9.25;;;13.10;36.00;;;;;;5064772;28;20035;-68
2021/04/22 10:33:01;;;;;;;12.07;5.18;;;12.90;35.10;;;;;;5069595;28;20497;-70
2021/04/22 10:35:29;;;;;;;18.15;6.20;;;12.60;35.60;;;;;;5057511;28;20123;-70
2021/04/22 10:38:00;;;;;;;36.08;14.90;;;12.50;36.50;;;;;;5050334;28;20389;-69
2021/04/22 10:40:33;;;;;;;26.35;8.98;;;12.60;37.80;;;;;;5036107;28;20032;-69
2021/04/22 10:43:02;;;;;;;25.20;8.70;;;12.60;36.80;;;;;;5054485;28;20111;-69
2021/04/22 10:45:29;;;;;;;22.77;6.53;;;12.70;36.20;;;;;;5071197;28;20050;-69
2021/04/22 10:47:57;;;;;;;25.75;9.13;;;12.60;35.90;;;;;;5059770;28;20020;-68
2021/04/22 10:50:33;;;;;;;21.20;8.77;;;12.80;36.00;;;;;;5064759;28;20044;-69
2021/04/22 10:53:01;;;;;;;12.27;5.03;;;12.80;36.50;;;;;;5050705;28;20440;-67
2021/04/22 10:55:32;;;;;;;27.80;10.80;;;12.70;36.00;;;;;;5039432;28;20078;-68
2021/04/22 10:58:12;;;;;;;16.80;5.03;;;12.60;37.90;;;;;;5066964;28;20025;-70
2021/04/22 11:00:38;;;;;;;16.60;6.28;;;12.40;36.30;;;;;;5047296;28;20052;-69
2021/04/22 11:03:03;;;;;;;18.20;6.38;;;12.20;37.20;;;;;;5057086;28;20057;-70
2021/04/22 11:05:33;;;;;;;31.10;11.80;;;12.30;37.50;;;;;;5069244;28;20467;-74
2021/04/22 11:08:07;;;;;;;18.25;6.53;;;12.50;38.90;;;;;;5041554;28;20513;-69
2021/04/22 11:10:36;;;;;;;19.90;7.40;;;12.70;38.90;;;;;;5063191;28;20075;-69
2021/04/22 11:13:21;;;;;;;24.98;6.72;;;12.80;38.00;;;;;;5050888;28;20409;-69
2021/04/22 11:15:59;;;;;;;13.75;5.18;;;12.70;37.30;;;;;;5042825;28;20025;-70
2021/04/22 11:18:43;;;;;;;22.77;6.65;;;12.60;36.20;;;;;;5045874;28;20521;-69
2021/04/22 11:21:48;;;;;;;12.18;5.00;;;12.40;37.40;;;;;;5073052;28;20040;-70
2021/04/22 11:24:35;;;;;;;15.43;6.53;;;12.50;37.10;;;;;;5038873;28;20032;-70
2021/04/22 11:27:12;;;;;;;10.02;3.90;;;12.40;38.00;;;;;;5039912;28;20037;-71
2021/04/22 11:29:51;;;;;;;23.10;7.03;;;12.20;36.60;;;;;;5070012;28;20036;-70
2021/04/22 11:32:33;;;;;;;9.48;3.92;;;12.10;37.80;;;;;;5062114;28;20025;-71
2021/04/22 11:35:18;;;;;;;18.00;7.43;;;12.30;37.50;;;;;;5058639;28;20030;-71
2021/04/22 11:38:02;;;;;;;14.45;6.07;;;12.80;39.70;;;;;;5040539;28;20048;-71
2021/04/22 11:40:38;;;;;;;9.30;3.17;;;13.00;35.40;;;;;;5044883;28;20021;-69
2021/04/22 11:43:06;;;;;;;17.52;5.10;;;12.90;35.10;;;;;;5068184;28;20012;-69
2021/04/22 11:45:33;;;;;;;10.40;3.15;;;12.80;35.30;;;;;;5038492;28;20112;-70
2021/04/22 11:48:02;;;;;;;18.35;8.82;;;12.90;35.40;;;;;;5065893;28;20387;-69
2021/04/22 11:50:40;;;;;;;44.35;29.35;;;13.10;39.80;;;;;;5063306;28;20025;-68
2021/04/22 11:53:07;;;;;;;28.23;14.88;;;13.30;38.20;;;;;;5057312;28;20071;-70
2021/04/22 11:55:38;;;;;;;19.98;11.23;;;13.50;36.30;;;;;;5069070;28;20029;-69
2021/04/22 11:58:10;;;;;;;68.15;37.22;;;13.20;37.00;;;;;;5059005;28;20499;-71
2021/04/22 12:00:40;;;;;;;84.03;40.95;;;13.10;36.00;;;;;;5061588;28;20025;-71
2021/04/22 12:03:07;;;;;;;36.17;14.60;;;12.90;35.30;;;;;;5050413;28;20083;-68
2021/04/22 12:05:34;;;;;;;11.10;4.47;;;13.00;35.50;;;;;;5055994;28;20050;-70
2021/04/22 12:08:07;;;;;;;19.73;8.68;;;12.90;35.10;;;;;;5068075;28;20020;-68
2021/04/22 12:10:36;;;;;;;18.95;7.57;;;12.90;35.40;;;;;;5043994;28;20021;-68
2021/04/22 12:13:10;;;;;;;16.25;3.50;;;13.00;35.80;;;;;;5056570;28;20051;-69
2021/04/22 12:15:38;;;;;;;14.93;6.70;;;12.90;35.70;;;;;;5068951;28;20479;-69
2021/04/22 12:18:05;;;;;;;24.38;9.07;;;13.00;35.60;;;;;;5057512;28;20028;-69
2021/04/22 12:20:31;;;;;;;19.38;6.97;;;13.00;36.50;;;;;;5061677;28;20028;-69
2021/04/22 12:22:57;;;;;;;12.68;6.10;;;12.90;36.50;;;;;;5066490;28;20024;-69
2021/04/22 12:25:24;;;;;;;10.18;3.50;;;13.00;35.80;;;;;;5055628;28;20029;-69
2021/04/22 12:27:51;;;;;;;32.40;14.10;;;12.90;35.80;;;;;;5048599;28;20028;-69
2021/04/22 12:30:21;;;;;;;19.23;7.47;;;12.90;40.10;;;;;;5061047;28;20505;-69
2021/04/22 12:32:56;;;;;;;14.13;4.72;;;12.70;38.00;;;;;;5059135;28;20060;-71
2021/04/22 12:35:29;;;;;;;15.25;3.45;;;12.80;36.00;;;;;;5068757;28;20032;-69
2021/04/22 12:37:56;;;;;;;17.70;4.07;;;12.70;35.70;;;;;;5057129;28;20012;-69
2021/04/22 12:40:23;;;;;;;12.32;4.00;;;12.80;35.40;;;;;;5062516;28;20021;-70
2021/04/22 12:42:49;;;;;;;13.65;4.88;;;12.60;35.20;;;;;;5065323;28;20391;-69
2021/04/22 12:45:17;;;;;;;16.90;5.43;;;12.80;36.30;;;;;;5055669;28;20021;-69
2021/04/22 12:47:53;;;;;;;12.55;4.13;;;12.70;36.30;;;;;;5047859;28;20013;-70
2021/04/22 12:50:25;;;;;;;17.23;5.55;;;12.60;35.90;;;;;;5062781;28;20029;-72
2021/04/22 12:53:04;;;;;;;14.60;4.60;;;12.60;37.60;;;;;;5065194;28;20368;-70
2021/04/22 12:55:34;;;;;;;9.35;3.45;;;12.90;36.70;;;;;;5037142;28;20116;-68
2021/04/22 12:58:00;;;;;;;16.88;4.53;;;13.20;36.30;;;;;;5064926;28;20111;-70
2021/04/22 13:00:39;;;;;;;16.45;4.75;;;13.50;36.50;;;;;;5061483;28;20089;-68
2021/04/22 13:03:11;;;;;;;10.27;3.45;;;13.30;36.50;;;;;;5056075;28;20020;-69
2021/04/22 13:05:47;;;;;;;11.35;3.63;;;13.00;35.80;;;;;;5067837;28;20037;-69
2021/04/22 13:08:13;;;;;;;13.15;4.30;;;12.90;36.30;;;;;;5040708;28;20095;-70
2021/04/22 13:10:40;;;;;;;12.20;4.80;;;13.00;35.30;;;;;;5059502;28;20097;-70